sensor_id;sensor_type;location;lat;lon;timestamp;temperature;humidity
1205;DHT22;592;48.764;9.174;2023-02-12T00:01:00;5.70;99.90
1205;DHT22;592;48.764;9.174;2023-02-12T00:03:26;5.70;99.90
1205;DHT22;592;48.764;9.174;2023-02-12T00:05:54;5.70;99.90
1205;DHT22;592;48.764;9.174;2023-02-12T00:08:25;5.60;99.90
1205;DHT22;592;48.764;9.174;2023-02-12T00:10:52;5.60;99.90
1205;DHT22;592;48.764;9.174;2023-02-12T00:13:19;5.60;99.90
1205;DHT22;592;48.764;9.174;2023-02-12T00:15:45;5.70;99.90
1205;DHT22;592;48.764;9.174;2023-02-12T00:18:12;5.80;99.90
1205;DHT22;592;48.764;9.174;2023-02-12T00:20:39;5.70;99.90
1205;DHT22;592;48.764;9.174;2023-02-12T00:23:07;5.80;99.90
1205;DHT22;592;48.764;9.174;2023-02-12T00:25:34;5.90;99.90
1205;DHT22;592;48.764;9.174;2023-02-12T00:28:00;5.80;99.90
1205;DHT22;592;48.764;9.174;2023-02-12T00:30:27;5.80;99.90
1205;DHT22;592;48.764;9.174;2023-02-12T00:32:54;5.70;99.90
1205;DHT22;592;48.764;9.174;2023-02-12T00:35:20;5.70;99.90
1205;DHT22;592;48.764;9.174;2023-02-12T00:37:47;5.80;99.90
1205;DHT22;592;48.764;9.174;2023-02-12T00:40:15;5.80;99.90
1205;DHT22;592;48.764;9.174;2023-02-12T00:42:42;5.80;99.90
1205;DHT22;592;48.764;9.174;2023-02-12T00:45:09;5.80;99.90
1205;DHT22;592;48.764;9.174;2023-02-12T00:47:35;5.90;99.90
1205;DHT22;592;48.764;9.174;2023-02-12T00:50:02;5.90;99.90
1205;DHT22;592;48.764;9.174;2023-02-12T00:52:29;5.90;99.90
1205;DHT22;592;48.764;9.174;2023-02-12T00:54:56;5.90;99.90
1205;DHT22;592;48.764;9.174;2023-02-12T00:57:24;6.00;99.90
1205;DHT22;592;48.764;9.174;2023-02-12T00:59:50;6.10;99.90
1205;DHT22;592;48.764;9.174;2023-02-12T01:02:17;6.00;99.90
1205;DHT22;592;48.764;9.174;2023-02-12T01:04:44;6.10;99.90
1205;DHT22;592;48.764;9.174;2023-02-12T01:07:10;6.10;99.90
1205;DHT22;592;48.764;9.174;2023-02-12T01:09:37;6.10;99.90
1205;DHT22;592;48.764;9.174;2023-02-12T01:12:04;6.10;99.90
1205;DHT22;592;48.764;9.174;2023-02-12T01:14:33;6.00;99.90
1205;DHT22;592;48.764;9.174;2023-02-12T01:16:59;6.00;99.90
1205;DHT22;592;48.764;9.174;2023-02-12T01:19:26;6.10;99.90
1205;DHT22;592;48.764;9.174;2023-02-12T01:21:53;6.10;99.90
1205;DHT22;592;48.764;9.174;2023-02-12T01:24:20;6.10;99.90
1205;DHT22;592;48.764;9.174;2023-02-12T01:26:46;6.10;99.90
1205;DHT22;592;48.764;9.174;2023-02-12T01:29:13;6.10;99.90
1205;DHT22;592;48.764;9.174;2023-02-12T01:31:41;6.00;99.90
1205;DHT22;592;48.764;9.174;2023-02-12T01:34:10;6.00;99.90
1205;DHT22;592;48.764;9.174;2023-02-12T01:36:36;6.00;99.90
1205;DHT22;592;48.764;9.174;2023-02-12T01:39:04;6.00;99.90
1205;DHT22;592;48.764;9.174;2023-02-12T01:41:33;5.90;99.90
1205;DHT22;592;48.764;9.174;2023-02-12T01:44:09;5.90;99.90
1205;DHT22;592;48.764;9.174;2023-02-12T01:46:36;5.90;99.90
1205;DHT22;592;48.764;9.174;2023-02-12T01:49:07;5.90;99.90
1205;DHT22;592;48.764;9.174;2023-02-12T01:51:34;6.00;99.90
1205;DHT22;592;48.764;9.174;2023-02-12T01:54:05;6.00;99.90
1205;DHT22;592;48.764;9.174;2023-02-12T01:56:33;5.90;99.90
1205;DHT22;592;48.764;9.174;2023-02-12T01:59:00;5.90;99.90
1205;DHT22;592;48.764;9.174;2023-02-12T02:01:29;6.00;99.90
1205;DHT22;592;48.764;9.174;2023-02-12T02:03:59;6.00;99.90
1205;DHT22;592;48.764;9.174;2023-02-12T02:06:31;6.00;99.90
1205;DHT22;592;48.764;9.174;2023-02-12T02:08:59;5.90;99.90
1205;DHT22;592;48.764;9.174;2023-02-12T02:11:26;5.70;99.90
1205;DHT22;592;48.764;9.174;2023-02-12T02:14:11;5.50;99.90
1205;DHT22;592;48.764;9.174;2023-02-12T02:19:55;5.30;99.90
1205;DHT22;592;48.764;9.174;2023-02-12T02:22:34;5.20;99.90
1205;DHT22;592;48.764;9.174;2023-02-12T02:25:20;5.30;99.90
1205;DHT22;592;48.764;9.174;2023-02-12T02:28:01;5.30;99.90
1205;DHT22;592;48.764;9.174;2023-02-12T02:30:33;5.40;99.90
1205;DHT22;592;48.764;9.174;2023-02-12T02:33:12;5.50;99.90
1205;DHT22;592;48.764;9.174;2023-02-12T02:35:45;5.70;99.90
1205;DHT22;592;48.764;9.174;2023-02-12T02:38:23;5.70;99.90
1205;DHT22;592;48.764;9.174;2023-02-12T02:40:55;5.80;99.90
1205;DHT22;592;48.764;9.174;2023-02-12T02:43:28;5.80;99.90
1205;DHT22;592;48.764;9.174;2023-02-12T02:46:02;5.80;99.90
1205;DHT22;592;48.764;9.174;2023-02-12T02:48:34;5.80;99.90
1205;DHT22;592;48.764;9.174;2023-02-12T02:51:04;5.70;99.90
1205;DHT22;592;48.764;9.174;2023-02-12T02:53:35;5.60;99.90
1205;DHT22;592;48.764;9.174;2023-02-12T02:56:05;5.70;99.90
1205;DHT22;592;48.764;9.174;2023-02-12T02:58:35;5.70;99.90
1205;DHT22;592;48.764;9.174;2023-02-12T03:01:08;5.80;99.90
1205;DHT22;592;48.764;9.174;2023-02-12T03:03:41;5.80;99.90
1205;DHT22;592;48.764;9.174;2023-02-12T03:06:13;5.80;99.90
1205;DHT22;592;48.764;9.174;2023-02-12T03:08:45;5.80;99.90
1205;DHT22;592;48.764;9.174;2023-02-12T03:11:16;5.80;99.90
1205;DHT22;592;48.764;9.174;2023-02-12T03:13:46;5.80;99.90
1205;DHT22;592;48.764;9.174;2023-02-12T03:16:18;5.80;99.90
1205;DHT22;592;48.764;9.174;2023-02-12T03:18:51;5.80;99.90
1205;DHT22;592;48.764;9.174;2023-02-12T03:21:23;5.80;99.90
1205;DHT22;592;48.764;9.174;2023-02-12T03:23:56;5.80;99.90
1205;DHT22;592;48.764;9.174;2023-02-12T03:26:26;5.90;99.90
1205;DHT22;592;48.764;9.174;2023-02-12T03:28:55;5.90;99.90
1205;DHT22;592;48.764;9.174;2023-02-12T03:31:30;5.90;99.90
1205;DHT22;592;48.764;9.174;2023-02-12T03:34:06;5.80;99.90
1205;DHT22;592;48.764;9.174;2023-02-12T03:36:40;5.90;99.90
1205;DHT22;592;48.764;9.174;2023-02-12T03:39:12;5.90;99.90
1205;DHT22;592;48.764;9.174;2023-02-12T03:41:43;5.90;99.90
1205;DHT22;592;48.764;9.174;2023-02-12T03:44:17;5.90;99.90
1205;DHT22;592;48.764;9.174;2023-02-12T03:46:54;5.80;99.90
1205;DHT22;592;48.764;9.174;2023-02-12T03:49:27;5.60;99.90
1205;DHT22;592;48.764;9.174;2023-02-12T03:51:56;5.60;99.90
1205;DHT22;592;48.764;9.174;2023-02-12T03:54:23;5.60;99.90
1205;DHT22;592;48.764;9.174;2023-02-12T03:56:53;5.60;99.90
1205;DHT22;592;48.764;9.174;2023-02-12T03:59:23;5.70;99.90
1205;DHT22;592;48.764;9.174;2023-02-12T04:01:53;5.80;99.90
1205;DHT22;592;48.764;9.174;2023-02-12T04:04:22;5.80;99.90
1205;DHT22;592;48.764;9.174;2023-02-12T04:06:50;5.80;99.90
1205;DHT22;592;48.764;9.174;2023-02-12T04:09:17;5.70;99.90
1205;DHT22;592;48.764;9.174;2023-02-12T04:11:58;5.60;99.90
1205;DHT22;592;48.764;9.174;2023-02-12T04:14:30;5.60;99.90
1205;DHT22;592;48.764;9.174;2023-02-12T04:17:07;5.50;99.90
1205;DHT22;592;48.764;9.174;2023-02-12T04:19:40;5.50;99.90
1205;DHT22;592;48.764;9.174;2023-02-12T04:22:20;5.60;99.90
1205;DHT22;592;48.764;9.174;2023-02-12T04:25:00;5.70;99.90
1205;DHT22;592;48.764;9.174;2023-02-12T04:27:36;5.70;99.90
1205;DHT22;592;48.764;9.174;2023-02-12T04:30:12;5.70;99.90
1205;DHT22;592;48.764;9.174;2023-02-12T04:32:47;5.70;99.90
1205;DHT22;592;48.764;9.174;2023-02-12T04:35:19;5.80;99.90
1205;DHT22;592;48.764;9.174;2023-02-12T04:37:49;5.80;99.90
1205;DHT22;592;48.764;9.174;2023-02-12T04:40:20;5.80;99.90
1205;DHT22;592;48.764;9.174;2023-02-12T04:42:49;5.80;99.90
1205;DHT22;592;48.764;9.174;2023-02-12T04:45:20;5.80;99.90
1205;DHT22;592;48.764;9.174;2023-02-12T04:47:49;5.80;99.90
1205;DHT22;592;48.764;9.174;2023-02-12T04:50:16;5.80;99.90
1205;DHT22;592;48.764;9.174;2023-02-12T04:52:43;5.80;99.90
1205;DHT22;592;48.764;9.174;2023-02-12T04:55:09;5.80;99.90
1205;DHT22;592;48.764;9.174;2023-02-12T04:57:36;5.90;99.90
1205;DHT22;592;48.764;9.174;2023-02-12T05:00:04;5.80;99.90
1205;DHT22;592;48.764;9.174;2023-02-12T05:02:32;5.80;99.90
1205;DHT22;592;48.764;9.174;2023-02-12T05:05:01;5.80;99.90
1205;DHT22;592;48.764;9.174;2023-02-12T05:07:27;5.80;99.90
1205;DHT22;592;48.764;9.174;2023-02-12T05:09:54;5.90;99.90
1205;DHT22;592;48.764;9.174;2023-02-12T05:12:21;5.90;99.90
1205;DHT22;592;48.764;9.174;2023-02-12T05:14:47;5.80;99.90
1205;DHT22;592;48.764;9.174;2023-02-12T05:17:14;5.80;99.90
1205;DHT22;592;48.764;9.174;2023-02-12T05:19:41;5.70;99.90
1205;DHT22;592;48.764;9.174;2023-02-12T05:22:09;5.60;99.90
1205;DHT22;592;48.764;9.174;2023-02-12T05:24:36;5.50;99.90
1205;DHT22;592;48.764;9.174;2023-02-12T05:27:02;5.60;99.90
1205;DHT22;592;48.764;9.174;2023-02-12T05:29:29;5.50;99.90
1205;DHT22;592;48.764;9.174;2023-02-12T05:31:56;5.60;99.90
1205;DHT22;592;48.764;9.174;2023-02-12T05:34:22;5.60;99.90
1205;DHT22;592;48.764;9.174;2023-02-12T05:36:49;5.60;99.90
1205;DHT22;592;48.764;9.174;2023-02-12T05:39:17;5.70;99.90
1205;DHT22;592;48.764;9.174;2023-02-12T05:41:44;5.70;99.90
1205;DHT22;592;48.764;9.174;2023-02-12T05:44:10;5.70;99.90
1205;DHT22;592;48.764;9.174;2023-02-12T05:46:39;5.80;99.90
1205;DHT22;592;48.764;9.174;2023-02-12T05:49:06;5.70;99.90
1205;DHT22;592;48.764;9.174;2023-02-12T05:51:33;5.70;99.90
1205;DHT22;592;48.764;9.174;2023-02-12T05:54:02;5.40;99.90
1205;DHT22;592;48.764;9.174;2023-02-12T05:56:32;5.30;99.90
1205;DHT22;592;48.764;9.174;2023-02-12T05:59:01;5.10;99.90
1205;DHT22;592;48.764;9.174;2023-02-12T06:01:30;5.10;99.90
1205;DHT22;592;48.764;9.174;2023-02-12T06:03:57;5.20;99.90
1205;DHT22;592;48.764;9.174;2023-02-12T06:06:24;5.10;99.90
1205;DHT22;592;48.764;9.174;2023-02-12T06:08:51;5.10;99.90
1205;DHT22;592;48.764;9.174;2023-02-12T06:11:18;5.20;99.90
1205;DHT22;592;48.764;9.174;2023-02-12T06:13:47;5.30;99.90
1205;DHT22;592;48.764;9.174;2023-02-12T06:16:17;5.40;99.90
1205;DHT22;592;48.764;9.174;2023-02-12T06:18:44;5.50;99.90
1205;DHT22;592;48.764;9.174;2023-02-12T06:21:11;5.50;99.90
1205;DHT22;592;48.764;9.174;2023-02-12T06:23:38;5.50;99.90
1205;DHT22;592;48.764;9.174;2023-02-12T06:26:05;5.30;99.90
1205;DHT22;592;48.764;9.174;2023-02-12T06:28:31;5.40;99.90
1205;DHT22;592;48.764;9.174;2023-02-12T06:30:59;5.40;99.90
1205;DHT22;592;48.764;9.174;2023-02-12T06:33:26;5.30;99.90
1205;DHT22;592;48.764;9.174;2023-02-12T06:35:53;5.20;99.90
1205;DHT22;592;48.764;9.174;2023-02-12T06:38:20;5.20;99.90
1205;DHT22;592;48.764;9.174;2023-02-12T06:40:47;5.20;99.90
1205;DHT22;592;48.764;9.174;2023-02-12T06:43:14;5.30;99.90
1205;DHT22;592;48.764;9.174;2023-02-12T06:45:40;5.30;99.90
1205;DHT22;592;48.764;9.174;2023-02-12T06:48:08;5.40;99.90
1205;DHT22;592;48.764;9.174;2023-02-12T06:50:35;5.40;99.90
1205;DHT22;592;48.764;9.174;2023-02-12T06:53:01;5.50;99.90
1205;DHT22;592;48.764;9.174;2023-02-12T06:55:28;5.60;99.90
1205;DHT22;592;48.764;9.174;2023-02-12T06:57:55;5.60;99.90
1205;DHT22;592;48.764;9.174;2023-02-12T07:00:22;5.60;99.90
1205;DHT22;592;48.764;9.174;2023-02-12T07:02:52;5.70;99.90
1205;DHT22;592;48.764;9.174;2023-02-12T07:05:21;5.60;99.90
1205;DHT22;592;48.764;9.174;2023-02-12T07:07:48;5.60;99.90
1205;DHT22;592;48.764;9.174;2023-02-12T07:10:15;5.70;99.90
1205;DHT22;592;48.764;9.174;2023-02-12T07:12:41;5.60;99.90
1205;DHT22;592;48.764;9.174;2023-02-12T07:15:09;5.60;99.90
1205;DHT22;592;48.764;9.174;2023-02-12T07:17:36;5.60;99.90
1205;DHT22;592;48.764;9.174;2023-02-12T07:20:03;5.70;99.90
1205;DHT22;592;48.764;9.174;2023-02-12T07:22:34;5.70;99.90
1205;DHT22;592;48.764;9.174;2023-02-12T07:25:01;5.70;99.90
1205;DHT22;592;48.764;9.174;2023-02-12T07:27:28;5.70;99.90
1205;DHT22;592;48.764;9.174;2023-02-12T07:29:54;5.80;99.90
1205;DHT22;592;48.764;9.174;2023-02-12T07:32:21;5.90;99.90
1205;DHT22;592;48.764;9.174;2023-02-12T07:34:48;5.90;99.90
1205;DHT22;592;48.764;9.174;2023-02-12T07:37:14;6.00;99.90
1205;DHT22;592;48.764;9.174;2023-02-12T07:39:48;6.00;99.90
1205;DHT22;592;48.764;9.174;2023-02-12T07:42:14;6.00;99.90
1205;DHT22;592;48.764;9.174;2023-02-12T07:44:41;6.10;99.90
1205;DHT22;592;48.764;9.174;2023-02-12T07:47:08;6.10;99.90
1205;DHT22;592;48.764;9.174;2023-02-12T07:49:35;6.10;99.90
1205;DHT22;592;48.764;9.174;2023-02-12T07:52:02;6.20;99.90
1205;DHT22;592;48.764;9.174;2023-02-12T07:54:28;6.20;99.90
1205;DHT22;592;48.764;9.174;2023-02-12T07:56:56;6.20;99.90
1205;DHT22;592;48.764;9.174;2023-02-12T07:59:25;6.20;99.90
1205;DHT22;592;48.764;9.174;2023-02-12T08:01:53;6.10;99.90
1205;DHT22;592;48.764;9.174;2023-02-12T08:04:23;6.10;99.90
1205;DHT22;592;48.764;9.174;2023-02-12T08:06:51;6.10;99.90
1205;DHT22;592;48.764;9.174;2023-02-12T08:09:20;6.00;99.90
1205;DHT22;592;48.764;9.174;2023-02-12T08:11:47;5.90;99.90
1205;DHT22;592;48.764;9.174;2023-02-12T08:14:17;5.90;99.90
1205;DHT22;592;48.764;9.174;2023-02-12T08:16:45;5.90;99.90
1205;DHT22;592;48.764;9.174;2023-02-12T08:19:13;5.90;99.90
1205;DHT22;592;48.764;9.174;2023-02-12T08:21:40;5.90;99.90
1205;DHT22;592;48.764;9.174;2023-02-12T08:24:06;5.90;99.90
1205;DHT22;592;48.764;9.174;2023-02-12T08:26:35;6.00;99.90
1205;DHT22;592;48.764;9.174;2023-02-12T08:29:05;6.00;99.90
1205;DHT22;592;48.764;9.174;2023-02-12T08:31:38;6.10;99.90
1205;DHT22;592;48.764;9.174;2023-02-12T08:34:06;6.20;99.90
1205;DHT22;592;48.764;9.174;2023-02-12T08:36:36;6.30;99.90
1205;DHT22;592;48.764;9.174;2023-02-12T08:39:04;6.30;99.90
1205;DHT22;592;48.764;9.174;2023-02-12T08:41:31;6.50;99.90
1205;DHT22;592;48.764;9.174;2023-02-12T08:43:59;6.50;99.90
1205;DHT22;592;48.764;9.174;2023-02-12T08:46:28;6.50;99.90
1205;DHT22;592;48.764;9.174;2023-02-12T08:48:58;6.50;99.90
1205;DHT22;592;48.764;9.174;2023-02-12T08:51:28;6.60;99.90
1205;DHT22;592;48.764;9.174;2023-02-12T08:53:58;6.60;99.90
1205;DHT22;592;48.764;9.174;2023-02-12T08:56:26;6.60;99.90
1205;DHT22;592;48.764;9.174;2023-02-12T08:58:55;6.60;99.90
1205;DHT22;592;48.764;9.174;2023-02-12T09:01:24;6.50;99.90
1205;DHT22;592;48.764;9.174;2023-02-12T09:03:52;6.50;99.90
1205;DHT22;592;48.764;9.174;2023-02-12T09:06:22;6.50;99.90
1205;DHT22;592;48.764;9.174;2023-02-12T09:08:49;6.50;99.90
1205;DHT22;592;48.764;9.174;2023-02-12T09:11:18;6.40;99.90
1205;DHT22;592;48.764;9.174;2023-02-12T09:13:46;6.50;99.90
1205;DHT22;592;48.764;9.174;2023-02-12T09:16:13;6.50;99.90
1205;DHT22;592;48.764;9.174;2023-02-12T09:18:40;6.40;99.90
1205;DHT22;592;48.764;9.174;2023-02-12T09:21:08;6.50;99.90
1205;DHT22;592;48.764;9.174;2023-02-12T09:23:38;6.50;99.90
1205;DHT22;592;48.764;9.174;2023-02-12T09:26:05;6.50;99.90
1205;DHT22;592;48.764;9.174;2023-02-12T09:28:32;6.60;99.90
1205;DHT22;592;48.764;9.174;2023-02-12T09:31:04;6.70;99.90
1205;DHT22;592;48.764;9.174;2023-02-12T09:33:30;6.80;99.90
1205;DHT22;592;48.764;9.174;2023-02-12T09:36:00;6.70;99.90
1205;DHT22;592;48.764;9.174;2023-02-12T09:38:28;6.60;99.90
1205;DHT22;592;48.764;9.174;2023-02-12T09:41:11;6.50;99.90
1205;DHT22;592;48.764;9.174;2023-02-12T09:43:43;6.50;99.90
1205;DHT22;592;48.764;9.174;2023-02-12T09:46:17;6.60;99.90
1205;DHT22;592;48.764;9.174;2023-02-12T09:48:53;6.60;99.90
1205;DHT22;592;48.764;9.174;2023-02-12T09:51:25;6.60;99.90
1205;DHT22;592;48.764;9.174;2023-02-12T09:54:00;6.50;99.90
1205;DHT22;592;48.764;9.174;2023-02-12T09:56:33;6.60;99.90
1205;DHT22;592;48.764;9.174;2023-02-12T09:59:03;6.80;99.90
1205;DHT22;592;48.764;9.174;2023-02-12T10:01:32;6.80;99.90
1205;DHT22;592;48.764;9.174;2023-02-12T10:03:59;6.90;99.90
1205;DHT22;592;48.764;9.174;2023-02-12T10:06:28;6.90;99.90
1205;DHT22;592;48.764;9.174;2023-02-12T10:09:10;6.90;99.90
1205;DHT22;592;48.764;9.174;2023-02-12T10:11:52;6.90;99.90
1205;DHT22;592;48.764;9.174;2023-02-12T10:14:39;6.90;99.90
1205;DHT22;592;48.764;9.174;2023-02-12T10:17:15;6.90;99.90
1205;DHT22;592;48.764;9.174;2023-02-12T10:19:55;6.90;99.90
1205;DHT22;592;48.764;9.174;2023-02-12T10:22:32;7.00;99.90
1205;DHT22;592;48.764;9.174;2023-02-12T10:25:11;7.00;99.90
1205;DHT22;592;48.764;9.174;2023-02-12T10:27:48;7.00;99.90
1205;DHT22;592;48.764;9.174;2023-02-12T10:30:19;6.90;99.90
1205;DHT22;592;48.764;9.174;2023-02-12T10:32:49;7.00;99.90
1205;DHT22;592;48.764;9.174;2023-02-12T10:35:17;7.00;99.90
1205;DHT22;592;48.764;9.174;2023-02-12T10:37:49;7.10;99.90
1205;DHT22;592;48.764;9.174;2023-02-12T10:40:23;7.20;99.90
1205;DHT22;592;48.764;9.174;2023-02-12T10:42:54;7.10;99.90
1205;DHT22;592;48.764;9.174;2023-02-12T10:45:23;7.20;99.90
1205;DHT22;592;48.764;9.174;2023-02-12T10:47:53;7.20;99.90
1205;DHT22;592;48.764;9.174;2023-02-12T10:50:36;7.40;99.90
1205;DHT22;592;48.764;9.174;2023-02-12T10:53:05;7.50;99.90
1205;DHT22;592;48.764;9.174;2023-02-12T10:55:35;7.50;99.90
1205;DHT22;592;48.764;9.174;2023-02-12T10:58:04;7.50;99.90
1205;DHT22;592;48.764;9.174;2023-02-12T11:00:42;7.50;99.90
1205;DHT22;592;48.764;9.174;2023-02-12T11:03:19;7.50;99.90
1205;DHT22;592;48.764;9.174;2023-02-12T11:05:48;7.70;99.90
1205;DHT22;592;48.764;9.174;2023-02-12T11:08:28;7.60;99.90
1205;DHT22;592;48.764;9.174;2023-02-12T11:11:03;7.50;99.90
1205;DHT22;592;48.764;9.174;2023-02-12T11:13:31;7.60;99.90
1205;DHT22;592;48.764;9.174;2023-02-12T11:15:58;7.60;99.90
1205;DHT22;592;48.764;9.174;2023-02-12T11:18:28;7.70;99.90
1205;DHT22;592;48.764;9.174;2023-02-12T11:20:59;7.80;99.90
1205;DHT22;592;48.764;9.174;2023-02-12T11:23:29;7.80;99.90
1205;DHT22;592;48.764;9.174;2023-02-12T11:25:59;7.70;99.90
1205;DHT22;592;48.764;9.174;2023-02-12T11:28:27;7.70;99.90
1205;DHT22;592;48.764;9.174;2023-02-12T11:30:58;7.80;99.90
1205;DHT22;592;48.764;9.174;2023-02-12T11:33:28;7.70;99.90
1205;DHT22;592;48.764;9.174;2023-02-12T11:35:57;7.70;99.90
1205;DHT22;592;48.764;9.174;2023-02-12T11:38:28;7.70;99.90
1205;DHT22;592;48.764;9.174;2023-02-12T11:40:58;7.80;99.90
1205;DHT22;592;48.764;9.174;2023-02-12T11:43:26;7.80;99.90
1205;DHT22;592;48.764;9.174;2023-02-12T11:45:57;7.90;99.90
1205;DHT22;592;48.764;9.174;2023-02-12T11:48:28;7.90;99.90
1205;DHT22;592;48.764;9.174;2023-02-12T11:50:58;7.90;99.90
1205;DHT22;592;48.764;9.174;2023-02-12T11:53:29;7.90;99.90
1205;DHT22;592;48.764;9.174;2023-02-12T11:55:59;8.00;99.90
1205;DHT22;592;48.764;9.174;2023-02-12T11:58:27;8.00;99.90
1205;DHT22;592;48.764;9.174;2023-02-12T12:01:02;8.00;99.90
1205;DHT22;592;48.764;9.174;2023-02-12T12:03:34;8.00;99.90
1205;DHT22;592;48.764;9.174;2023-02-12T12:06:06;8.20;99.90
1205;DHT22;592;48.764;9.174;2023-02-12T12:08:38;8.10;99.90
1205;DHT22;592;48.764;9.174;2023-02-12T12:11:10;8.00;99.90
1205;DHT22;592;48.764;9.174;2023-02-12T12:13:43;8.10;99.90
1205;DHT22;592;48.764;9.174;2023-02-12T12:16:18;8.00;99.90
1205;DHT22;592;48.764;9.174;2023-02-12T12:19:05;8.10;99.90
1205;DHT22;592;48.764;9.174;2023-02-12T12:21:59;8.10;99.90
1205;DHT22;592;48.764;9.174;2023-02-12T12:24:34;8.10;99.90
1205;DHT22;592;48.764;9.174;2023-02-12T12:27:09;8.20;99.90
1205;DHT22;592;48.764;9.174;2023-02-12T12:30:00;8.20;99.90
1205;DHT22;592;48.764;9.174;2023-02-12T12:32:33;8.20;99.90
1205;DHT22;592;48.764;9.174;2023-02-12T12:35:01;8.30;99.90
1205;DHT22;592;48.764;9.174;2023-02-12T12:37:34;8.40;99.90
1205;DHT22;592;48.764;9.174;2023-02-12T12:40:27;8.20;99.90
1205;DHT22;592;48.764;9.174;2023-02-12T12:43:02;8.10;99.90
1205;DHT22;592;48.764;9.174;2023-02-12T12:45:59;8.10;99.90
1205;DHT22;592;48.764;9.174;2023-02-12T12:48:45;8.20;99.90
1205;DHT22;592;48.764;9.174;2023-02-12T12:51:27;8.30;99.90
1205;DHT22;592;48.764;9.174;2023-02-12T12:54:11;8.30;99.90
1205;DHT22;592;48.764;9.174;2023-02-12T12:56:54;8.40;99.90
1205;DHT22;592;48.764;9.174;2023-02-12T12:59:39;8.40;99.90
1205;DHT22;592;48.764;9.174;2023-02-12T13:02:31;8.60;99.90
1205;DHT22;592;48.764;9.174;2023-02-12T13:08:19;8.20;99.90
1205;DHT22;592;48.764;9.174;2023-02-12T13:10:54;8.20;99.90
1205;DHT22;592;48.764;9.174;2023-02-12T13:13:27;8.20;99.90
1205;DHT22;592;48.764;9.174;2023-02-12T13:16:02;8.20;99.90
1205;DHT22;592;48.764;9.174;2023-02-12T13:18:39;8.20;99.90
1205;DHT22;592;48.764;9.174;2023-02-12T13:21:15;8.30;99.90
1205;DHT22;592;48.764;9.174;2023-02-12T13:23:50;8.40;99.90
1205;DHT22;592;48.764;9.174;2023-02-12T13:26:23;8.40;99.90
1205;DHT22;592;48.764;9.174;2023-02-12T13:28:58;8.40;99.90
1205;DHT22;592;48.764;9.174;2023-02-12T13:31:28;8.40;99.90
1205;DHT22;592;48.764;9.174;2023-02-12T13:34:00;8.40;99.90
1205;DHT22;592;48.764;9.174;2023-02-12T13:36:27;8.50;99.90
1205;DHT22;592;48.764;9.174;2023-02-12T13:39:00;8.70;99.90
1205;DHT22;592;48.764;9.174;2023-02-12T13:41:30;8.80;99.90
1205;DHT22;592;48.764;9.174;2023-02-12T13:44:06;9.00;99.90
1205;DHT22;592;48.764;9.174;2023-02-12T13:46:46;9.10;99.90
1205;DHT22;592;48.764;9.174;2023-02-12T13:49:24;9.20;99.90
1205;DHT22;592;48.764;9.174;2023-02-12T13:51:57;9.10;99.90
1205;DHT22;592;48.764;9.174;2023-02-12T13:54:36;9.20;99.90
1205;DHT22;592;48.764;9.174;2023-02-12T13:57:08;9.30;99.90
1205;DHT22;592;48.764;9.174;2023-02-12T13:59:42;9.40;99.90
1205;DHT22;592;48.764;9.174;2023-02-12T14:05:25;9.70;99.90
1205;DHT22;592;48.764;9.174;2023-02-12T14:07:54;9.90;99.90
1205;DHT22;592;48.764;9.174;2023-02-12T14:10:29;10.00;99.90
1205;DHT22;592;48.764;9.174;2023-02-12T14:13:08;10.00;99.90
1205;DHT22;592;48.764;9.174;2023-02-12T14:15:37;10.00;99.90
1205;DHT22;592;48.764;9.174;2023-02-12T14:18:20;9.90;99.90
1205;DHT22;592;48.764;9.174;2023-02-12T14:20:47;10.00;99.90
1205;DHT22;592;48.764;9.174;2023-02-12T14:23:25;10.20;99.90
1205;DHT22;592;48.764;9.174;2023-02-12T14:25:58;10.60;99.90
1205;DHT22;592;48.764;9.174;2023-02-12T14:28:31;11.00;99.90
1205;DHT22;592;48.764;9.174;2023-02-12T14:31:33;11.00;99.90
1205;DHT22;592;48.764;9.174;2023-02-12T14:37:30;10.70;99.90
1205;DHT22;592;48.764;9.174;2023-02-12T14:43:00;10.40;99.90
1205;DHT22;592;48.764;9.174;2023-02-12T14:45:30;10.40;99.90
1205;DHT22;592;48.764;9.174;2023-02-12T14:47:57;10.20;99.90
1205;DHT22;592;48.764;9.174;2023-02-12T14:50:29;10.10;99.90
1205;DHT22;592;48.764;9.174;2023-02-12T14:53:12;9.90;99.90
1205;DHT22;592;48.764;9.174;2023-02-12T14:55:45;9.70;99.90
1205;DHT22;592;48.764;9.174;2023-02-12T14:58:17;9.70;99.90
1205;DHT22;592;48.764;9.174;2023-02-12T15:00:46;9.60;99.90
1205;DHT22;592;48.764;9.174;2023-02-12T15:03:28;9.60;99.90
1205;DHT22;592;48.764;9.174;2023-02-12T15:06:01;9.50;99.90
1205;DHT22;592;48.764;9.174;2023-02-12T15:08:35;9.50;99.90
1205;DHT22;592;48.764;9.174;2023-02-12T15:11:20;9.50;99.90
1205;DHT22;592;48.764;9.174;2023-02-12T15:13:53;9.40;99.90
1205;DHT22;592;48.764;9.174;2023-02-12T15:16:31;9.30;99.90
1205;DHT22;592;48.764;9.174;2023-02-12T15:19:03;9.30;99.90
1205;DHT22;592;48.764;9.174;2023-02-12T15:21:31;9.20;99.90
1205;DHT22;592;48.764;9.174;2023-02-12T15:24:03;9.20;99.90
1205;DHT22;592;48.764;9.174;2023-02-12T15:26:33;9.20;99.90
1205;DHT22;592;48.764;9.174;2023-02-12T15:29:02;9.10;99.90
1205;DHT22;592;48.764;9.174;2023-02-12T15:31:30;9.10;99.90
1205;DHT22;592;48.764;9.174;2023-02-12T15:33:59;8.90;99.90
1205;DHT22;592;48.764;9.174;2023-02-12T15:36:29;8.80;99.90
1205;DHT22;592;48.764;9.174;2023-02-12T15:39:00;8.80;99.90
1205;DHT22;592;48.764;9.174;2023-02-12T15:41:37;8.70;99.90
1205;DHT22;592;48.764;9.174;2023-02-12T15:44:19;8.70;99.90
1205;DHT22;592;48.764;9.174;2023-02-12T15:46:57;8.60;99.90
1205;DHT22;592;48.764;9.174;2023-02-12T15:49:30;8.60;99.90
1205;DHT22;592;48.764;9.174;2023-02-12T15:51:59;8.50;99.90
1205;DHT22;592;48.764;9.174;2023-02-12T15:54:27;8.50;99.90
1205;DHT22;592;48.764;9.174;2023-02-12T15:56:54;8.50;99.90
1205;DHT22;592;48.764;9.174;2023-02-12T15:59:24;8.40;99.90
1205;DHT22;592;48.764;9.174;2023-02-12T16:01:55;8.40;99.90
1205;DHT22;592;48.764;9.174;2023-02-12T16:04:22;8.40;99.90
1205;DHT22;592;48.764;9.174;2023-02-12T16:06:49;8.30;99.90
1205;DHT22;592;48.764;9.174;2023-02-12T16:09:18;8.30;99.90
1205;DHT22;592;48.764;9.174;2023-02-12T16:11:50;8.30;99.90
1205;DHT22;592;48.764;9.174;2023-02-12T16:14:19;8.30;99.90
1205;DHT22;592;48.764;9.174;2023-02-12T16:16:50;8.30;99.90
1205;DHT22;592;48.764;9.174;2023-02-12T16:19:21;8.30;99.90
1205;DHT22;592;48.764;9.174;2023-02-12T16:21:50;8.30;99.90
1205;DHT22;592;48.764;9.174;2023-02-12T16:24:24;8.20;99.90
1205;DHT22;592;48.764;9.174;2023-02-12T16:26:52;8.10;99.90
1205;DHT22;592;48.764;9.174;2023-02-12T16:29:19;8.10;99.90
1205;DHT22;592;48.764;9.174;2023-02-12T16:31:56;8.10;99.90
1205;DHT22;592;48.764;9.174;2023-02-12T16:34:33;8.00;99.90
1205;DHT22;592;48.764;9.174;2023-02-12T16:37:00;7.90;99.90
1205;DHT22;592;48.764;9.174;2023-02-12T16:42:25;7.90;99.90
1205;DHT22;592;48.764;9.174;2023-02-12T16:44:53;7.90;99.90
1205;DHT22;592;48.764;9.174;2023-02-12T16:47:23;7.80;99.90
1205;DHT22;592;48.764;9.174;2023-02-12T16:49:55;7.80;99.90
1205;DHT22;592;48.764;9.174;2023-02-12T16:52:32;7.70;99.90
1205;DHT22;592;48.764;9.174;2023-02-12T16:55:00;7.60;99.90
1205;DHT22;592;48.764;9.174;2023-02-12T16:57:26;7.50;99.90
1205;DHT22;592;48.764;9.174;2023-02-12T16:59:53;7.50;99.90
1205;DHT22;592;48.764;9.174;2023-02-12T17:02:21;7.50;99.90
1205;DHT22;592;48.764;9.174;2023-02-12T17:04:48;7.50;99.90
1205;DHT22;592;48.764;9.174;2023-02-12T17:07:17;7.40;99.90
1205;DHT22;592;48.764;9.174;2023-02-12T17:09:44;7.40;99.90
1205;DHT22;592;48.764;9.174;2023-02-12T17:12:11;7.40;99.90
1205;DHT22;592;48.764;9.174;2023-02-12T17:14:38;7.30;99.90
1205;DHT22;592;48.764;9.174;2023-02-12T17:17:04;7.20;99.90